Towanda, Kansas
Current Conditions -  °F | °C
As of 12:55 PM on Thursday 30 Oct 2014 (Local Time) from KEQA Reporting Station
Clear Clear  
Wind Chill: 70°   Ceiling: Unl
Heat Index: 70°   Visibility: 10mi
Dew Point: 36°   Wind: 23mph
Humidity: 28%   Direction: 350°N
Pressure: 30.12"   Gusts: 29mph
Location:  37.8°N, 97°W
Report Text: KEQA 301755Z AUTO 35020G25KT 10SM CLR 21/02 A3012 RMK AO2
Loading
Personal Weather Stations






























Interactive Weather Map
Tropical Storm Tracking
New forecast layout! Learn more

10-Day Weather Forecast

Advertisements
Track Severe Weather on mobile